createdAt,value
2022-10-17T00:02:25.520Z,10.07
2022-10-17T00:04:52.361Z,10.21
2022-10-17T00:07:19.178Z,10.42
2022-10-17T00:09:46.057Z,9.95
2022-10-17T00:12:13.103Z,10.12
2022-10-17T00:14:39.950Z,9.77
2022-10-17T00:17:06.847Z,10.15
2022-10-17T00:19:33.669Z,10.12
2022-10-17T00:22:00.578Z,10.22
2022-10-17T00:24:27.421Z,10.28
2022-10-17T00:26:54.248Z,10.11
2022-10-17T00:29:21.087Z,9.88
2022-10-17T00:31:48.166Z,9.44
2022-10-17T00:34:15.071Z,9.52
2022-10-17T00:36:41.922Z,9.35
2022-10-17T00:39:09.556Z,9.22
2022-10-17T00:41:36.485Z,9.17
2022-10-17T00:44:08.023Z,9.30
2022-10-17T00:46:37.169Z,8.94
2022-10-17T00:49:08.356Z,8.94
2022-10-17T00:51:42.227Z,8.75
2022-10-17T00:54:11.315Z,8.72
2022-10-17T00:56:40.519Z,8.90
2022-10-17T00:59:12.387Z,9.14
2022-10-17T01:01:42.062Z,9.29
2022-10-17T01:04:10.358Z,9.28
2022-10-17T01:06:39.474Z,9.29
2022-10-17T01:09:06.398Z,9.27
2022-10-17T01:11:38.692Z,9.46
2022-10-17T01:14:23.941Z,9.55
2022-10-17T01:17:14.059Z,9.13
2022-10-17T01:20:02.885Z,9.12
2022-10-17T01:22:49.400Z,9.08
2022-10-17T01:25:21.904Z,8.91
2022-10-17T01:28:07.041Z,9.19
2022-10-17T01:30:49.616Z,9.08
2022-10-17T01:33:27.587Z,8.78
2022-10-17T01:36:08.403Z,8.71
2022-10-17T01:38:59.790Z,8.69
2022-10-17T01:41:46.781Z,8.42
2022-10-17T01:44:34.622Z,8.75
2022-10-17T01:47:09.621Z,8.17
2022-10-17T01:49:39.389Z,8.24
2022-10-17T01:52:15.457Z,7.89
2022-10-17T01:54:51.241Z,7.72
2022-10-17T01:57:32.230Z,8.08
2022-10-17T02:00:00.937Z,7.93
2022-10-17T02:02:29.175Z,8.23
2022-10-17T02:04:57.933Z,8.06
2022-10-17T02:07:25.248Z,7.81
2022-10-17T02:09:52.999Z,7.75
2022-10-17T02:13:10.871Z,7.73
2022-10-17T02:15:59.314Z,7.39
2022-10-17T02:18:44.453Z,7.62
2022-10-17T02:21:31.509Z,7.77
2022-10-17T02:24:13.269Z,7.86
2022-10-17T02:26:47.058Z,7.90
2022-10-17T02:29:19.499Z,7.93
2022-10-17T02:31:56.255Z,7.72
2022-10-17T02:34:32.328Z,7.63
2022-10-17T02:37:02.210Z,7.79
2022-10-17T02:39:30.640Z,7.89
2022-10-17T02:42:02.124Z,7.72
2022-10-17T02:44:32.426Z,7.76
2022-10-17T02:47:11.420Z,7.76
2022-10-17T02:49:42.511Z,7.85
2022-10-17T02:52:23.991Z,7.95
2022-10-17T02:55:17.417Z,8.20
2022-10-17T02:57:54.804Z,8.44
2022-10-17T03:00:23.845Z,8.23
2022-10-17T03:02:52.606Z,7.99
2022-10-17T03:05:25.600Z,8.04
2022-10-17T03:07:53.319Z,8.25
2022-10-17T03:10:20.738Z,8.27
2022-10-17T03:12:47.928Z,8.17
2022-10-17T03:15:15.276Z,8.06
2022-10-17T03:17:43.037Z,7.91
2022-10-17T03:20:10.940Z,8.02
2022-10-17T03:22:38.054Z,8.14
2022-10-17T03:25:06.286Z,8.00
2022-10-17T03:27:35.780Z,7.97
2022-10-17T03:30:02.576Z,7.99
2022-10-17T03:32:33.675Z,8.06
2022-10-17T03:35:00.566Z,8.18
2022-10-17T03:37:28.120Z,8.44
2022-10-17T03:39:55.278Z,8.60
2022-10-17T03:42:22.289Z,8.58
2022-10-17T03:44:49.183Z,8.31
2022-10-17T03:47:17.096Z,8.15
2022-10-17T03:49:45.008Z,7.84
2022-10-17T03:52:13.075Z,8.11
2022-10-17T03:54:40.863Z,8.36
2022-10-17T03:57:07.765Z,8.38
2022-10-17T03:59:36.010Z,8.44
2022-10-17T04:02:07.703Z,8.49
2022-10-17T04:04:35.514Z,8.68
2022-10-17T04:07:03.613Z,8.80
2022-10-17T04:09:30.866Z,8.91
2022-10-17T04:12:03.054Z,8.88
2022-10-17T04:14:31.396Z,9.04
2022-10-17T04:16:58.768Z,9.06
2022-10-17T04:19:26.932Z,9.21
2022-10-17T04:21:54.592Z,9.30
2022-10-17T04:24:21.988Z,9.25
2022-10-17T04:26:55.313Z,8.98
2022-10-17T04:29:25.889Z,8.35
2022-10-17T04:32:00.530Z,8.38
2022-10-17T04:34:35.664Z,8.43
2022-10-17T04:37:03.835Z,8.38
2022-10-17T04:39:31.284Z,8.48
2022-10-17T04:41:58.257Z,8.69
2022-10-17T04:44:25.174Z,8.93
2022-10-17T04:46:52.862Z,8.95
2022-10-17T04:49:20.218Z,8.92
2022-10-17T04:51:51.481Z,8.98
2022-10-17T04:54:41.423Z,9.56
2022-10-17T04:57:10.477Z,9.51
2022-10-17T04:59:39.277Z,9.73
2022-10-17T05:02:32.408Z,9.90
2022-10-17T05:05:01.611Z,10.28
2022-10-17T05:07:28.898Z,10.10
2022-10-17T05:09:58.905Z,10.07
2022-10-17T05:12:26.690Z,10.34
2022-10-17T05:14:54.171Z,10.44
2022-10-17T05:17:22.611Z,10.78
2022-10-17T05:19:49.944Z,11.04
2022-10-17T05:22:17.119Z,11.27
2022-10-17T05:24:43.947Z,11.52
2022-10-17T05:27:11.376Z,11.73
2022-10-17T05:29:39.165Z,12.06
2022-10-17T05:32:16.912Z,12.42
2022-10-17T05:34:43.829Z,12.60
2022-10-17T05:37:11.249Z,12.74
2022-10-17T05:39:39.274Z,12.65
2022-10-17T05:42:07.515Z,12.65
2022-10-17T05:44:35.209Z,13.02
2022-10-17T05:47:02.629Z,13.07
2022-10-17T05:49:43.908Z,13.05
2022-10-17T05:52:12.514Z,13.18
2022-10-17T05:54:54.803Z,13.27
2022-10-17T05:57:25.673Z,13.15
2022-10-17T05:59:52.621Z,13.33
2022-10-17T06:02:20.678Z,13.68
2022-10-17T06:04:49.363Z,14.38
2022-10-17T06:07:18.346Z,14.83
2022-10-17T06:12:13.271Z,15.18
2022-10-17T06:14:42.763Z,15.55
2022-10-17T06:17:15.773Z,15.64
2022-10-17T06:19:44.921Z,15.90
2022-10-17T06:22:14.806Z,16.05
2022-10-17T06:24:42.713Z,16.13
2022-10-17T06:27:11.989Z,16.10
2022-10-17T06:29:40.777Z,16.33
2022-10-17T06:32:09.885Z,16.64
2022-10-17T06:34:40.936Z,16.80
2022-10-17T06:37:07.744Z,16.92
2022-10-17T06:39:39.119Z,16.87
2022-10-17T06:42:10.795Z,16.96
2022-10-17T06:44:57.929Z,16.99
2022-10-17T06:47:53.595Z,17.33
2022-10-17T06:50:40.099Z,17.69
2022-10-17T06:53:28.948Z,17.46
2022-10-17T06:56:14.414Z,17.44
2022-10-17T06:59:09.806Z,17.64
2022-10-17T07:01:40.651Z,17.90
2022-10-17T07:04:11.667Z,18.10
2022-10-17T07:06:39.155Z,18.09
2022-10-17T07:09:19.008Z,18.13
2022-10-17T07:11:46.275Z,18.31
2022-10-17T07:14:17.219Z,18.18
2022-10-17T07:16:44.124Z,18.44
2022-10-17T07:19:17.598Z,18.76
2022-10-17T07:21:44.549Z,19.01
2022-10-17T07:24:12.308Z,19.34
2022-10-17T07:26:42.018Z,19.57
2022-10-17T07:29:09.833Z,19.74
2022-10-17T07:31:45.711Z,19.85
2022-10-17T07:34:12.811Z,19.92
2022-10-17T07:36:39.791Z,19.94
2022-10-17T07:39:07.722Z,20.04
2022-10-17T07:41:36.591Z,20.07
2022-10-17T07:44:04.411Z,20.16
2022-10-17T07:46:35.737Z,20.24
2022-10-17T07:49:02.659Z,20.59
2022-10-17T07:51:29.596Z,20.98
2022-10-17T07:53:56.484Z,20.94
2022-10-17T07:56:24.869Z,20.91
2022-10-17T07:58:52.686Z,21.01
2022-10-17T08:01:19.595Z,20.93
2022-10-17T08:03:48.829Z,21.00
2022-10-17T08:06:15.810Z,20.92
2022-10-17T08:08:43.454Z,21.09
2022-10-17T08:11:12.866Z,21.24
2022-10-17T08:13:40.493Z,21.15
2022-10-17T08:16:10.436Z,21.11
2022-10-17T08:18:39.882Z,20.94
2022-10-17T08:21:08.420Z,21.23
2022-10-17T08:23:36.464Z,21.64
2022-10-17T08:26:06.229Z,21.79
2022-10-17T08:28:35.990Z,21.82
2022-10-17T08:31:08.378Z,21.93
2022-10-17T08:33:35.464Z,21.96
2022-10-17T08:36:03.889Z,22.07
2022-10-17T08:38:35.097Z,21.96
2022-10-17T08:41:07.200Z,22.41
2022-10-17T08:44:10.256Z,22.51
2022-10-17T08:46:41.442Z,22.76
2022-10-17T08:49:16.549Z,22.62
2022-10-17T08:51:51.674Z,22.50
2022-10-17T08:54:43.146Z,21.46
2022-10-17T08:57:13.559Z,20.82
2022-10-17T08:59:40.602Z,20.79
2022-10-17T09:02:28.660Z,20.98
2022-10-17T09:05:32.407Z,21.79
2022-10-17T09:08:20.136Z,22.17
2022-10-17T09:10:56.010Z,21.17
2022-10-17T09:13:59.027Z,20.58
2022-10-17T09:16:39.009Z,20.98
2022-10-17T09:19:23.431Z,20.92
2022-10-17T09:22:04.155Z,20.74
2022-10-17T09:24:38.808Z,19.99
2022-10-17T09:27:09.281Z,19.98
2022-10-17T09:29:41.512Z,19.39
2022-10-17T09:32:23.964Z,20.06
2022-10-17T09:34:53.331Z,20.25
2022-10-17T09:37:26.438Z,20.66
2022-10-17T09:39:53.262Z,20.80
2022-10-17T09:42:24.004Z,20.48
2022-10-17T09:45:05.691Z,21.11
2022-10-17T09:47:42.037Z,21.20
2022-10-17T09:50:31.180Z,22.24
2022-10-17T09:53:02.979Z,22.70
2022-10-17T09:55:42.459Z,23.06
2022-10-17T09:58:10.314Z,23.20
2022-10-17T10:00:42.845Z,22.76
2022-10-17T10:03:27.335Z,23.08
2022-10-17T10:06:18.395Z,23.43
2022-10-17T10:08:58.802Z,23.07
2022-10-17T10:11:49.906Z,23.62
2022-10-17T10:14:33.569Z,23.21
2022-10-17T10:17:00.877Z,22.77
2022-10-17T10:19:38.918Z,22.75
2022-10-17T10:22:17.169Z,23.24
2022-10-17T10:24:44.148Z,23.14
2022-10-17T10:27:17.937Z,23.04
2022-10-17T10:29:51.786Z,22.35
2022-10-17T10:35:32.488Z,22.97
2022-10-17T10:38:02.004Z,22.87
2022-10-17T10:40:54.844Z,22.94
2022-10-17T10:43:32.733Z,23.15
2022-10-17T10:46:00.715Z,23.50
2022-10-17T10:48:37.563Z,23.50
2022-10-17T10:51:16.525Z,23.96
2022-10-17T10:53:50.051Z,24.11
2022-10-17T10:56:31.296Z,23.71
2022-10-17T10:59:10.395Z,23.32
2022-10-17T11:02:15.867Z,23.31
2022-10-17T11:04:48.543Z,23.93
2022-10-17T11:07:25.981Z,24.21
2022-10-17T11:10:03.124Z,23.75
2022-10-17T11:12:48.272Z,23.43
2022-10-17T11:15:35.205Z,23.42
2022-10-17T11:18:08.410Z,22.98
2022-10-17T11:21:13.620Z,23.01
2022-10-17T11:23:47.986Z,23.60
2022-10-17T11:26:28.031Z,24.01
2022-10-17T11:28:57.055Z,24.01
2022-10-17T11:31:30.753Z,23.61
2022-10-17T11:34:06.042Z,23.97
2022-10-17T11:36:38.011Z,24.37
2022-10-17T11:39:16.201Z,24.44
2022-10-17T11:41:58.958Z,24.68
2022-10-17T11:44:34.385Z,24.25
2022-10-17T11:47:26.017Z,24.35
2022-10-17T11:53:14.293Z,24.60
2022-10-17T11:55:41.769Z,24.90
2022-10-17T11:58:24.067Z,24.12
2022-10-17T12:01:12.212Z,24.32
2022-10-17T12:04:09.488Z,24.24
2022-10-17T12:06:55.021Z,23.86
2022-10-17T12:09:34.643Z,24.50
2022-10-17T12:12:02.953Z,24.37
2022-10-17T12:14:43.350Z,24.67
2022-10-17T12:17:36.906Z,24.39
2022-10-17T12:20:24.885Z,24.59
2022-10-17T12:22:58.842Z,24.07
2022-10-17T12:25:34.700Z,23.31
2022-10-17T12:28:21.809Z,23.77
2022-10-17T12:30:57.485Z,23.66
2022-10-17T12:33:34.951Z,24.24
2022-10-17T12:36:17.179Z,24.19
2022-10-17T12:38:49.209Z,24.20
2022-10-17T12:41:37.399Z,24.10
2022-10-17T12:44:12.905Z,24.00
2022-10-17T12:46:52.888Z,22.96
2022-10-17T12:49:41.664Z,22.97
2022-10-17T12:52:19.216Z,22.69
2022-10-17T12:55:00.315Z,22.77
2022-10-17T12:57:39.630Z,23.38
2022-10-17T13:00:34.461Z,23.49
2022-10-17T13:03:26.473Z,23.98
2022-10-17T13:06:01.110Z,24.25
2022-10-17T13:08:31.209Z,24.49
2022-10-17T13:10:58.321Z,24.15
2022-10-17T13:13:44.769Z,24.13
2022-10-17T13:16:35.276Z,24.42
2022-10-17T13:19:12.387Z,24.68
2022-10-17T13:21:39.521Z,24.34
2022-10-17T13:24:30.139Z,24.23
2022-10-17T13:26:57.923Z,24.05
2022-10-17T13:29:25.969Z,23.85
2022-10-17T13:32:01.481Z,23.98
2022-10-17T13:34:29.043Z,24.08
2022-10-17T13:36:58.991Z,24.15
2022-10-17T13:39:45.008Z,24.11
2022-10-17T13:42:24.911Z,24.14
2022-10-17T13:44:52.324Z,24.17
2022-10-17T13:47:29.442Z,24.07
2022-10-17T13:49:57.977Z,24.10
2022-10-17T13:52:28.497Z,24.14
2022-10-17T13:55:06.080Z,24.27
2022-10-17T13:57:33.405Z,24.21
2022-10-17T14:00:27.456Z,23.91
2022-10-17T14:02:54.349Z,23.70
2022-10-17T14:05:23.407Z,23.69
2022-10-17T14:10:43.415Z,23.53
2022-10-17T14:13:28.468Z,23.51
2022-10-17T14:15:57.573Z,23.53
2022-10-17T14:18:35.951Z,23.38
2022-10-17T14:21:37.269Z,23.41
2022-10-17T14:23:53.512Z,23.08
2022-10-17T14:26:24.340Z,22.51
2022-10-17T14:29:06.463Z,22.67
2022-10-17T14:31:36.388Z,22.57
2022-10-17T14:34:05.353Z,22.35
2022-10-17T14:36:42.748Z,22.26
2022-10-17T14:39:24.464Z,22.10
2022-10-17T14:41:52.431Z,21.95
2022-10-17T14:44:24.116Z,21.85
2022-10-17T14:46:54.536Z,21.66
2022-10-17T14:49:39.300Z,21.49
2022-10-17T14:52:18.317Z,21.38
2022-10-17T14:54:50.038Z,21.30
2022-10-17T14:57:23.531Z,21.17
2022-10-17T14:59:55.004Z,21.09
2022-10-17T15:02:27.961Z,20.89
2022-10-17T15:04:55.334Z,20.73
2022-10-17T15:07:23.694Z,20.67
2022-10-17T15:09:52.135Z,20.53
2022-10-17T15:12:22.243Z,20.58
2022-10-17T15:14:49.657Z,20.32
2022-10-17T15:17:21.041Z,20.12
2022-10-17T15:19:48.657Z,20.18
2022-10-17T15:22:16.401Z,20.16
2022-10-17T15:24:43.509Z,20.04
2022-10-17T15:27:16.392Z,19.92
2022-10-17T15:29:43.687Z,19.82
2022-10-17T15:32:10.795Z,19.75
2022-10-17T15:34:38.214Z,19.61
2022-10-17T15:37:07.128Z,19.56
2022-10-17T15:39:34.202Z,19.57
2022-10-17T15:42:01.152Z,19.69
2022-10-17T15:44:28.352Z,19.57
2022-10-17T15:46:55.961Z,19.50
2022-10-17T15:49:22.802Z,19.36
2022-10-17T15:51:53.034Z,19.27
2022-10-17T15:54:22.260Z,19.17
2022-10-17T15:56:54.209Z,19.25
2022-10-17T15:59:26.339Z,19.20
2022-10-17T16:01:53.309Z,19.09
2022-10-17T16:04:20.093Z,19.08
2022-10-17T16:06:47.037Z,19.15
2022-10-17T16:09:13.962Z,19.12
2022-10-17T16:11:43.171Z,19.06
2022-10-17T16:14:15.748Z,19.04
2022-10-17T16:16:42.992Z,18.78
2022-10-17T16:19:10.049Z,18.52
2022-10-17T16:21:40.395Z,18.56
2022-10-17T16:24:09.517Z,18.55
2022-10-17T16:26:36.384Z,18.59
2022-10-17T16:29:04.862Z,18.60
2022-10-17T16:31:34.862Z,18.29
2022-10-17T16:34:03.380Z,18.42
2022-10-17T16:36:30.525Z,18.48
2022-10-17T16:38:57.630Z,18.35
2022-10-17T16:41:31.500Z,18.51
2022-10-17T16:44:00.879Z,18.47
2022-10-17T16:46:29.635Z,18.32
2022-10-17T16:48:58.789Z,18.33
2022-10-17T16:51:26.055Z,18.07
2022-10-17T16:53:54.526Z,18.04
2022-10-17T16:56:23.456Z,18.02
2022-10-17T16:58:51.765Z,17.99
2022-10-17T17:01:21.502Z,18.10
2022-10-17T17:03:48.607Z,18.01
2022-10-17T17:06:19.116Z,18.04
2022-10-17T17:08:46.405Z,17.83
2022-10-17T17:11:16.506Z,17.77
2022-10-17T17:13:43.909Z,17.77
2022-10-17T17:16:13.996Z,17.67
2022-10-17T17:18:41.981Z,17.65
2022-10-17T17:21:10.502Z,17.54
2022-10-17T17:23:39.892Z,17.64
2022-10-17T17:26:16.548Z,17.74
2022-10-17T17:28:43.977Z,17.74
2022-10-17T17:31:19.861Z,17.63
2022-10-17T17:33:47.115Z,17.45
2022-10-17T17:36:19.324Z,17.42
2022-10-17T17:38:47.442Z,17.30
2022-10-17T17:41:16.456Z,17.11
2022-10-17T17:43:44.582Z,17.08
2022-10-17T17:46:11.788Z,16.95
2022-10-17T17:48:39.940Z,16.94
2022-10-17T17:51:09.042Z,16.40
2022-10-17T17:53:36.944Z,15.97
2022-10-17T17:56:06.075Z,15.97
2022-10-17T17:58:33.644Z,15.92
2022-10-17T18:01:01.475Z,16.13
2022-10-17T18:03:28.355Z,16.18
2022-10-17T18:05:55.154Z,16.24
2022-10-17T18:08:22.077Z,16.19
2022-10-17T18:10:50.207Z,16.15
2022-10-17T18:13:17.414Z,15.85
2022-10-17T18:15:44.617Z,15.83
2022-10-17T18:18:11.487Z,15.77
2022-10-17T18:20:42.133Z,15.97
2022-10-17T18:23:09.950Z,16.04
2022-10-17T18:25:37.368Z,15.89
2022-10-17T18:28:04.464Z,15.85
2022-10-17T18:30:34.409Z,15.84
2022-10-17T18:33:01.418Z,15.82
2022-10-17T18:35:28.259Z,15.77
2022-10-17T18:37:57.056Z,15.88
2022-10-17T18:40:23.933Z,15.98
2022-10-17T18:42:50.786Z,15.76
2022-10-17T18:45:17.649Z,15.72
2022-10-17T18:47:47.378Z,15.80
2022-10-17T18:50:15.054Z,15.79
2022-10-17T18:52:41.912Z,15.81
2022-10-17T18:55:09.174Z,15.87
2022-10-17T18:57:36.051Z,15.46
2022-10-17T19:00:04.514Z,15.28
2022-10-17T19:02:34.375Z,15.45
2022-10-17T19:05:04.273Z,15.30
2022-10-17T19:07:31.391Z,15.28
2022-10-17T19:09:58.462Z,15.30
2022-10-17T19:12:25.298Z,15.32
2022-10-17T19:14:53.148Z,15.03
2022-10-17T19:17:19.998Z,15.15
2022-10-17T19:19:50.340Z,14.94
2022-10-17T19:22:17.377Z,14.91
2022-10-17T19:24:44.251Z,14.88
2022-10-17T19:27:12.306Z,15.04
2022-10-17T19:29:43.547Z,14.96
2022-10-17T19:32:15.731Z,14.94
2022-10-17T19:34:45.088Z,15.00
2022-10-17T19:37:11.954Z,15.04
2022-10-17T19:39:38.893Z,14.91
2022-10-17T19:42:06.950Z,14.66
2022-10-17T19:44:34.948Z,14.59
2022-10-17T19:47:01.757Z,14.51
2022-10-17T19:49:28.673Z,14.45
2022-10-17T19:51:55.570Z,14.40
2022-10-17T19:54:22.432Z,14.54
2022-10-17T19:56:49.345Z,14.64
2022-10-17T19:59:17.242Z,14.55
2022-10-17T20:01:44.786Z,14.62
2022-10-17T20:04:12.347Z,14.39
2022-10-17T20:06:40.704Z,14.19
2022-10-17T20:09:11.077Z,14.16
2022-10-17T20:11:41.250Z,13.87
2022-10-17T20:14:08.565Z,13.93
2022-10-17T20:16:36.552Z,13.80
2022-10-17T20:19:11.652Z,13.79
2022-10-17T20:21:39.985Z,13.44
2022-10-17T20:24:11.182Z,13.40
2022-10-17T20:26:39.381Z,13.35
2022-10-17T20:29:14.226Z,13.38
2022-10-17T20:31:43.115Z,13.39
2022-10-17T20:34:13.129Z,13.15
2022-10-17T20:36:40.432Z,13.07
2022-10-17T20:39:07.747Z,13.17
2022-10-17T20:41:34.851Z,13.40
2022-10-17T20:44:01.873Z,13.49
2022-10-17T20:46:37.287Z,13.27
2022-10-17T20:49:06.439Z,13.53
2022-10-17T20:51:33.944Z,13.44
2022-10-17T20:54:00.901Z,13.26
2022-10-17T20:56:30.103Z,13.36
2022-10-17T20:58:59.595Z,13.13
2022-10-17T21:01:27.153Z,12.87
2022-10-17T21:03:54.524Z,13.02
2022-10-17T21:06:22.727Z,12.73
2022-10-17T21:08:50.339Z,12.61
2022-10-17T21:11:19.802Z,12.69
2022-10-17T21:13:47.863Z,12.79
2022-10-17T21:16:18.384Z,12.81
2022-10-17T21:18:45.982Z,12.90
2022-10-17T21:21:27.804Z,12.86
2022-10-17T21:24:00.818Z,12.65
2022-10-17T21:26:28.183Z,12.74
2022-10-17T21:28:55.783Z,12.64
2022-10-17T21:31:27.784Z,12.39
2022-10-17T21:33:59.887Z,12.59
2022-10-17T21:36:28.017Z,12.42
2022-10-17T21:38:56.473Z,12.00
2022-10-17T21:41:25.835Z,11.73
2022-10-17T21:43:55.105Z,11.73
2022-10-17T21:46:22.782Z,11.62
2022-10-17T21:48:51.894Z,11.64
2022-10-17T21:51:25.262Z,11.54
2022-10-17T21:53:53.898Z,11.44
2022-10-17T21:56:23.222Z,11.70
2022-10-17T21:58:51.788Z,11.61
2022-10-17T22:01:22.557Z,11.86
2022-10-17T22:03:52.438Z,11.92
2022-10-17T22:06:39.331Z,11.60
2022-10-17T22:09:13.251Z,11.89
2022-10-17T22:11:40.580Z,12.04
2022-10-17T22:14:15.060Z,12.02
2022-10-17T22:16:44.306Z,12.02
2022-10-17T22:19:12.530Z,12.07
2022-10-17T22:21:39.664Z,12.42
2022-10-17T22:24:08.808Z,12.34
2022-10-17T22:26:37.348Z,12.13
2022-10-17T22:29:06.264Z,11.79
2022-10-17T22:31:34.085Z,11.78
2022-10-17T22:34:01.146Z,11.60
2022-10-17T22:36:28.085Z,11.14
2022-10-17T22:38:55.155Z,11.10
2022-10-17T22:41:22.468Z,10.88
2022-10-17T22:43:49.284Z,11.15
2022-10-17T22:46:17.030Z,11.19
2022-10-17T22:48:44.305Z,10.93
2022-10-17T22:51:12.029Z,10.90
2022-10-17T22:53:39.041Z,10.84
2022-10-17T22:56:07.735Z,11.01
2022-10-17T22:58:35.947Z,11.28
2022-10-17T23:01:06.151Z,11.36
2022-10-17T23:03:33.992Z,11.30
2022-10-17T23:06:01.044Z,11.31
2022-10-17T23:08:28.626Z,11.33
2022-10-17T23:10:55.502Z,11.25
2022-10-17T23:13:22.407Z,11.04
2022-10-17T23:15:57.272Z,11.21
2022-10-17T23:18:26.111Z,11.25
2022-10-17T23:20:54.067Z,11.27
2022-10-17T23:23:21.403Z,11.19
2022-10-17T23:25:49.459Z,10.88
2022-10-17T23:28:17.171Z,10.69
2022-10-17T23:30:44.217Z,10.61
2022-10-17T23:33:12.937Z,10.90
2022-10-17T23:35:40.568Z,11.02
2022-10-17T23:38:07.495Z,10.91
2022-10-17T23:40:35.417Z,10.63
2022-10-17T23:43:03.208Z,10.50
2022-10-17T23:45:34.664Z,10.40
2022-10-17T23:48:05.049Z,10.50
2022-10-17T23:50:31.925Z,10.42
2022-10-17T23:52:58.798Z,10.23
2022-10-17T23:55:25.649Z,10.35
2022-10-17T23:57:52.461Z,10.33
